sensor_id;sensor_type;location;lat;lon;timestamp;P1;durP1;ratioP1;P2;durP2;ratioP2
19113;SDS011;9689;51.052;13.772;2023-05-10T00:00:26;3.50;;;2.15;;
19113;SDS011;9689;51.052;13.772;2023-05-10T00:05:27;2.55;;;1.88;;
19113;SDS011;9689;51.052;13.772;2023-05-10T00:10:29;3.05;;;2.03;;
19113;SDS011;9689;51.052;13.772;2023-05-10T00:15:30;4.95;;;1.85;;
19113;SDS011;9689;51.052;13.772;2023-05-10T00:20:30;2.60;;;1.83;;
19113;SDS011;9689;51.052;13.772;2023-05-10T00:25:33;5.85;;;1.90;;
19113;SDS011;9689;51.052;13.772;2023-05-10T00:30:33;2.72;;;1.88;;
19113;SDS011;9689;51.052;13.772;2023-05-10T00:35:34;4.43;;;2.17;;
19113;SDS011;9689;51.052;13.772;2023-05-10T00:40:36;4.97;;;2.47;;
19113;SDS011;9689;51.052;13.772;2023-05-10T00:45:42;5.32;;;1.92;;
19113;SDS011;9689;51.052;13.772;2023-05-10T00:50:44;4.88;;;1.77;;
19113;SDS011;9689;51.052;13.772;2023-05-10T00:55:46;6.93;;;1.88;;
19113;SDS011;9689;51.052;13.772;2023-05-10T01:00:47;4.43;;;1.92;;
19113;SDS011;9689;51.052;13.772;2023-05-10T01:05:48;2.60;;;1.65;;
19113;SDS011;9689;51.052;13.772;2023-05-10T01:10:51;3.10;;;1.83;;
19113;SDS011;9689;51.052;13.772;2023-05-10T01:15:52;2.55;;;1.98;;
19113;SDS011;9689;51.052;13.772;2023-05-10T01:20:54;5.80;;;1.65;;
19113;SDS011;9689;51.052;13.772;2023-05-10T01:26:15;4.10;;;2.08;;
19113;SDS011;9689;51.052;13.772;2023-05-10T01:31:30;2.92;;;1.45;;
19113;SDS011;9689;51.052;13.772;2023-05-10T01:36:43;2.25;;;1.60;;
19113;SDS011;9689;51.052;13.772;2023-05-10T01:41:49;2.40;;;1.75;;
19113;SDS011;9689;51.052;13.772;2023-05-10T01:46:56;3.58;;;1.63;;
19113;SDS011;9689;51.052;13.772;2023-05-10T01:52:06;3.58;;;1.90;;
19113;SDS011;9689;51.052;13.772;2023-05-10T01:57:11;5.03;;;1.63;;
19113;SDS011;9689;51.052;13.772;2023-05-10T02:02:14;7.32;;;1.73;;
19113;SDS011;9689;51.052;13.772;2023-05-10T02:07:18;4.93;;;1.58;;
19113;SDS011;9689;51.052;13.772;2023-05-10T02:12:20;2.78;;;1.55;;
19113;SDS011;9689;51.052;13.772;2023-05-10T02:17:22;7.43;;;1.85;;
19113;SDS011;9689;51.052;13.772;2023-05-10T02:22:26;8.13;;;2.03;;
19113;SDS011;9689;51.052;13.772;2023-05-10T02:27:28;5.22;;;1.73;;
19113;SDS011;9689;51.052;13.772;2023-05-10T02:32:30;3.42;;;1.70;;
19113;SDS011;9689;51.052;13.772;2023-05-10T02:37:33;4.38;;;1.60;;
19113;SDS011;9689;51.052;13.772;2023-05-10T02:42:36;5.75;;;1.77;;
19113;SDS011;9689;51.052;13.772;2023-05-10T02:47:38;7.10;;;1.75;;
19113;SDS011;9689;51.052;13.772;2023-05-10T02:52:42;2.38;;;1.75;;
19113;SDS011;9689;51.052;13.772;2023-05-10T02:57:48;4.30;;;2.17;;
19113;SDS011;9689;51.052;13.772;2023-05-10T03:02:52;8.98;;;1.80;;
19113;SDS011;9689;51.052;13.772;2023-05-10T03:07:55;6.57;;;1.85;;
19113;SDS011;9689;51.052;13.772;2023-05-10T03:13:01;5.90;;;1.73;;
19113;SDS011;9689;51.052;13.772;2023-05-10T03:18:09;3.40;;;1.83;;
19113;SDS011;9689;51.052;13.772;2023-05-10T03:23:17;4.82;;;1.90;;
19113;SDS011;9689;51.052;13.772;2023-05-10T03:28:24;2.70;;;1.88;;
19113;SDS011;9689;51.052;13.772;2023-05-10T03:33:26;3.65;;;1.77;;
19113;SDS011;9689;51.052;13.772;2023-05-10T03:38:28;3.28;;;1.85;;
19113;SDS011;9689;51.052;13.772;2023-05-10T03:43:29;3.78;;;1.70;;
19113;SDS011;9689;51.052;13.772;2023-05-10T03:48:30;4.85;;;2.40;;
19113;SDS011;9689;51.052;13.772;2023-05-10T03:53:32;4.57;;;1.77;;
19113;SDS011;9689;51.052;13.772;2023-05-10T03:58:32;2.78;;;1.92;;
19113;SDS011;9689;51.052;13.772;2023-05-10T04:03:33;2.67;;;2.10;;
19113;SDS011;9689;51.052;13.772;2023-05-10T04:08:38;2.85;;;1.83;;
19113;SDS011;9689;51.052;13.772;2023-05-10T04:13:38;3.55;;;1.60;;
19113;SDS011;9689;51.052;13.772;2023-05-10T04:18:39;4.00;;;2.15;;
19113;SDS011;9689;51.052;13.772;2023-05-10T04:23:41;2.78;;;1.92;;
19113;SDS011;9689;51.052;13.772;2023-05-10T04:28:42;9.10;;;1.77;;
19113;SDS011;9689;51.052;13.772;2023-05-10T04:33:43;3.30;;;1.65;;
19113;SDS011;9689;51.052;13.772;2023-05-10T04:38:45;4.25;;;1.42;;
19113;SDS011;9689;51.052;13.772;2023-05-10T04:43:46;2.78;;;1.63;;
19113;SDS011;9689;51.052;13.772;2023-05-10T04:48:48;8.88;;;2.08;;
19113;SDS011;9689;51.052;13.772;2023-05-10T04:53:50;3.58;;;1.58;;
19113;SDS011;9689;51.052;13.772;2023-05-10T04:59:04;7.38;;;1.30;;
19113;SDS011;9689;51.052;13.772;2023-05-10T05:04:05;5.68;;;2.05;;
19113;SDS011;9689;51.052;13.772;2023-05-10T05:09:07;2.33;;;1.48;;
19113;SDS011;9689;51.052;13.772;2023-05-10T05:14:09;4.30;;;1.80;;
19113;SDS011;9689;51.052;13.772;2023-05-10T05:19:10;3.00;;;1.58;;
19113;SDS011;9689;51.052;13.772;2023-05-10T05:24:12;5.40;;;1.58;;
19113;SDS011;9689;51.052;13.772;2023-05-10T05:29:12;2.42;;;1.40;;
19113;SDS011;9689;51.052;13.772;2023-05-10T05:34:13;4.90;;;1.73;;
19113;SDS011;9689;51.052;13.772;2023-05-10T05:39:15;2.80;;;1.85;;
19113;SDS011;9689;51.052;13.772;2023-05-10T05:44:16;2.25;;;1.65;;
19113;SDS011;9689;51.052;13.772;2023-05-10T05:49:17;3.47;;;1.50;;
19113;SDS011;9689;51.052;13.772;2023-05-10T05:54:19;2.08;;;1.58;;
19113;SDS011;9689;51.052;13.772;2023-05-10T05:59:19;3.42;;;1.63;;
19113;SDS011;9689;51.052;13.772;2023-05-10T06:04:20;5.78;;;2.50;;
19113;SDS011;9689;51.052;13.772;2023-05-10T06:09:22;3.67;;;1.90;;
19113;SDS011;9689;51.052;13.772;2023-05-10T06:14:24;2.33;;;1.50;;
19113;SDS011;9689;51.052;13.772;2023-05-10T06:19:24;6.28;;;1.83;;
19113;SDS011;9689;51.052;13.772;2023-05-10T06:24:27;2.90;;;2.00;;
19113;SDS011;9689;51.052;13.772;2023-05-10T06:29:27;3.63;;;1.98;;
19113;SDS011;9689;51.052;13.772;2023-05-10T06:34:28;4.47;;;2.08;;
19113;SDS011;9689;51.052;13.772;2023-05-10T06:39:31;2.92;;;1.83;;
19113;SDS011;9689;51.052;13.772;2023-05-10T06:44:32;2.80;;;1.73;;
19113;SDS011;9689;51.052;13.772;2023-05-10T06:49:32;9.43;;;1.95;;
19113;SDS011;9689;51.052;13.772;2023-05-10T06:54:34;6.20;;;1.90;;
19113;SDS011;9689;51.052;13.772;2023-05-10T06:59:35;4.88;;;2.15;;
19113;SDS011;9689;51.052;13.772;2023-05-10T07:04:36;5.00;;;2.00;;
19113;SDS011;9689;51.052;13.772;2023-05-10T07:09:38;5.32;;;2.00;;
19113;SDS011;9689;51.052;13.772;2023-05-10T07:14:39;8.60;;;2.00;;
19113;SDS011;9689;51.052;13.772;2023-05-10T07:19:40;10.75;;;2.22;;
19113;SDS011;9689;51.052;13.772;2023-05-10T07:24:42;5.85;;;1.90;;
19113;SDS011;9689;51.052;13.772;2023-05-10T07:29:43;3.85;;;1.92;;
19113;SDS011;9689;51.052;13.772;2023-05-10T07:34:45;3.22;;;2.15;;
19113;SDS011;9689;51.052;13.772;2023-05-10T07:39:47;8.15;;;1.98;;
19113;SDS011;9689;51.052;13.772;2023-05-10T07:44:48;4.07;;;1.65;;
19113;SDS011;9689;51.052;13.772;2023-05-10T07:49:48;6.28;;;2.15;;
19113;SDS011;9689;51.052;13.772;2023-05-10T07:54:50;6.22;;;3.00;;
19113;SDS011;9689;51.052;13.772;2023-05-10T07:59:51;3.17;;;2.20;;
19113;SDS011;9689;51.052;13.772;2023-05-10T08:04:52;4.35;;;2.50;;
19113;SDS011;9689;51.052;13.772;2023-05-10T08:09:54;4.82;;;2.50;;
19113;SDS011;9689;51.052;13.772;2023-05-10T08:14:55;7.93;;;2.10;;
19113;SDS011;9689;51.052;13.772;2023-05-10T08:19:56;4.75;;;2.30;;
19113;SDS011;9689;51.052;13.772;2023-05-10T08:24:58;5.45;;;3.30;;
19113;SDS011;9689;51.052;13.772;2023-05-10T08:29:59;4.63;;;2.45;;
19113;SDS011;9689;51.052;13.772;2023-05-10T08:35:00;8.13;;;2.45;;
19113;SDS011;9689;51.052;13.772;2023-05-10T08:40:02;6.47;;;2.50;;
19113;SDS011;9689;51.052;13.772;2023-05-10T08:45:04;5.65;;;2.08;;
19113;SDS011;9689;51.052;13.772;2023-05-10T08:50:07;3.67;;;2.38;;
19113;SDS011;9689;51.052;13.772;2023-05-10T08:55:10;5.80;;;2.33;;
19113;SDS011;9689;51.052;13.772;2023-05-10T09:00:11;6.97;;;2.50;;
19113;SDS011;9689;51.052;13.772;2023-05-10T09:05:13;7.80;;;2.53;;
19113;SDS011;9689;51.052;13.772;2023-05-10T09:10:17;8.70;;;2.40;;
19113;SDS011;9689;51.052;13.772;2023-05-10T09:15:18;4.35;;;2.40;;
19113;SDS011;9689;51.052;13.772;2023-05-10T09:20:19;5.13;;;2.08;;
19113;SDS011;9689;51.052;13.772;2023-05-10T09:25:21;9.00;;;2.30;;
19113;SDS011;9689;51.052;13.772;2023-05-10T09:30:23;5.97;;;2.10;;
19113;SDS011;9689;51.052;13.772;2023-05-10T09:35:26;3.63;;;2.25;;
19113;SDS011;9689;51.052;13.772;2023-05-10T09:40:30;4.70;;;2.55;;
19113;SDS011;9689;51.052;13.772;2023-05-10T09:45:32;6.07;;;2.60;;
19113;SDS011;9689;51.052;13.772;2023-05-10T09:50:37;4.28;;;2.30;;
19113;SDS011;9689;51.052;13.772;2023-05-10T09:55:40;4.28;;;2.35;;
19113;SDS011;9689;51.052;13.772;2023-05-10T10:00:44;5.38;;;2.38;;
19113;SDS011;9689;51.052;13.772;2023-05-10T10:05:50;5.70;;;3.10;;
19113;SDS011;9689;51.052;13.772;2023-05-10T10:10:53;6.10;;;2.50;;
19113;SDS011;9689;51.052;13.772;2023-05-10T10:15:54;9.10;;;2.40;;
19113;SDS011;9689;51.052;13.772;2023-05-10T10:20:55;8.05;;;2.70;;
19113;SDS011;9689;51.052;13.772;2023-05-10T10:25:58;10.63;;;2.30;;
19113;SDS011;9689;51.052;13.772;2023-05-10T10:31:00;9.82;;;3.08;;
19113;SDS011;9689;51.052;13.772;2023-05-10T10:36:16;6.72;;;2.80;;
19113;SDS011;9689;51.052;13.772;2023-05-10T10:41:27;3.67;;;2.50;;
19113;SDS011;9689;51.052;13.772;2023-05-10T10:46:29;7.47;;;2.83;;
19113;SDS011;9689;51.052;13.772;2023-05-10T10:51:31;5.85;;;2.75;;
19113;SDS011;9689;51.052;13.772;2023-05-10T10:56:34;5.53;;;2.53;;
19113;SDS011;9689;51.052;13.772;2023-05-10T11:01:35;3.88;;;2.33;;
19113;SDS011;9689;51.052;13.772;2023-05-10T11:06:36;6.13;;;2.50;;
19113;SDS011;9689;51.052;13.772;2023-05-10T11:11:47;5.75;;;2.53;;
19113;SDS011;9689;51.052;13.772;2023-05-10T11:16:49;4.95;;;2.13;;
19113;SDS011;9689;51.052;13.772;2023-05-10T11:21:51;6.70;;;2.22;;
19113;SDS011;9689;51.052;13.772;2023-05-10T11:27:13;7.30;;;2.60;;
19113;SDS011;9689;51.052;13.772;2023-05-10T11:32:14;3.05;;;2.33;;
19113;SDS011;9689;51.052;13.772;2023-05-10T11:37:15;4.40;;;2.20;;
19113;SDS011;9689;51.052;13.772;2023-05-10T11:42:17;3.70;;;2.00;;
19113;SDS011;9689;51.052;13.772;2023-05-10T11:47:18;3.47;;;2.28;;
19113;SDS011;9689;51.052;13.772;2023-05-10T11:52:19;9.30;;;2.58;;
19113;SDS011;9689;51.052;13.772;2023-05-10T11:57:25;5.47;;;2.60;;
19113;SDS011;9689;51.052;13.772;2023-05-10T12:02:27;4.35;;;2.60;;
19113;SDS011;9689;51.052;13.772;2023-05-10T12:07:27;8.23;;;2.40;;
19113;SDS011;9689;51.052;13.772;2023-05-10T12:12:36;4.63;;;2.70;;
19113;SDS011;9689;51.052;13.772;2023-05-10T12:17:38;5.90;;;2.97;;
19113;SDS011;9689;51.052;13.772;2023-05-10T12:22:43;6.75;;;2.78;;
19113;SDS011;9689;51.052;13.772;2023-05-10T12:27:53;3.50;;;2.25;;
19113;SDS011;9689;51.052;13.772;2023-05-10T12:32:59;5.07;;;2.60;;
19113;SDS011;9689;51.052;13.772;2023-05-10T12:38:00;4.75;;;2.47;;
19113;SDS011;9689;51.052;13.772;2023-05-10T12:43:02;4.85;;;2.78;;
19113;SDS011;9689;51.052;13.772;2023-05-10T12:48:03;9.75;;;2.55;;
19113;SDS011;9689;51.052;13.772;2023-05-10T12:53:04;3.40;;;2.35;;
19113;SDS011;9689;51.052;13.772;2023-05-10T12:58:06;6.45;;;2.78;;
19113;SDS011;9689;51.052;13.772;2023-05-10T13:03:07;4.70;;;2.97;;
19113;SDS011;9689;51.052;13.772;2023-05-10T13:08:07;5.60;;;2.80;;
19113;SDS011;9689;51.052;13.772;2023-05-10T13:13:10;4.55;;;2.80;;
19113;SDS011;9689;51.052;13.772;2023-05-10T13:18:10;5.47;;;2.40;;
19113;SDS011;9689;51.052;13.772;2023-05-10T13:23:11;3.10;;;2.25;;
19113;SDS011;9689;51.052;13.772;2023-05-10T13:28:15;4.90;;;2.40;;
19113;SDS011;9689;51.052;13.772;2023-05-10T13:33:16;4.50;;;2.53;;
19113;SDS011;9689;51.052;13.772;2023-05-10T13:38:17;6.95;;;2.10;;
19113;SDS011;9689;51.052;13.772;2023-05-10T13:43:23;4.75;;;2.67;;
19113;SDS011;9689;51.052;13.772;2023-05-10T13:48:24;3.17;;;2.13;;
19113;SDS011;9689;51.052;13.772;2023-05-10T13:53:25;2.92;;;2.00;;
19113;SDS011;9689;51.052;13.772;2023-05-10T13:58:27;3.72;;;2.45;;
19113;SDS011;9689;51.052;13.772;2023-05-10T14:03:28;6.65;;;2.22;;
19113;SDS011;9689;51.052;13.772;2023-05-10T14:08:28;4.15;;;2.92;;
19113;SDS011;9689;51.052;13.772;2023-05-10T14:13:30;4.55;;;2.40;;
19113;SDS011;9689;51.052;13.772;2023-05-10T14:18:32;6.13;;;2.00;;
19113;SDS011;9689;51.052;13.772;2023-05-10T14:23:33;3.47;;;2.25;;
19113;SDS011;9689;51.052;13.772;2023-05-10T14:28:35;7.88;;;2.30;;
19113;SDS011;9689;51.052;13.772;2023-05-10T14:33:36;4.22;;;2.47;;
19113;SDS011;9689;51.052;13.772;2023-05-10T14:38:36;4.95;;;2.40;;
19113;SDS011;9689;51.052;13.772;2023-05-10T14:43:38;8.15;;;2.28;;
19113;SDS011;9689;51.052;13.772;2023-05-10T14:48:39;5.57;;;2.90;;
19113;SDS011;9689;51.052;13.772;2023-05-10T14:53:40;6.75;;;2.63;;
19113;SDS011;9689;51.052;13.772;2023-05-10T14:58:42;5.72;;;2.30;;
19113;SDS011;9689;51.052;13.772;2023-05-10T15:03:42;3.72;;;1.98;;
19113;SDS011;9689;51.052;13.772;2023-05-10T15:08:43;6.30;;;2.42;;
19113;SDS011;9689;51.052;13.772;2023-05-10T15:13:45;5.38;;;2.58;;
19113;SDS011;9689;51.052;13.772;2023-05-10T15:18:46;3.75;;;2.70;;
19113;SDS011;9689;51.052;13.772;2023-05-10T15:23:47;9.05;;;3.05;;
19113;SDS011;9689;51.052;13.772;2023-05-10T15:28:49;6.07;;;2.35;;
19113;SDS011;9689;51.052;13.772;2023-05-10T15:33:50;3.83;;;2.70;;
19113;SDS011;9689;51.052;13.772;2023-05-10T15:38:53;4.05;;;2.42;;
19113;SDS011;9689;51.052;13.772;2023-05-10T15:43:55;6.38;;;2.35;;
19113;SDS011;9689;51.052;13.772;2023-05-10T15:48:56;5.25;;;3.25;;
19113;SDS011;9689;51.052;13.772;2023-05-10T15:53:57;4.97;;;2.53;;
19113;SDS011;9689;51.052;13.772;2023-05-10T15:59:07;6.32;;;2.40;;
19113;SDS011;9689;51.052;13.772;2023-05-10T16:04:09;4.03;;;2.95;;
19113;SDS011;9689;51.052;13.772;2023-05-10T16:09:10;3.50;;;2.55;;
19113;SDS011;9689;51.052;13.772;2023-05-10T16:14:13;5.32;;;2.80;;
19113;SDS011;9689;51.052;13.772;2023-05-10T16:19:14;4.00;;;2.47;;
19113;SDS011;9689;51.052;13.772;2023-05-10T16:24:15;8.10;;;3.20;;
19113;SDS011;9689;51.052;13.772;2023-05-10T16:29:17;4.97;;;2.92;;
19113;SDS011;9689;51.052;13.772;2023-05-10T16:34:18;4.43;;;2.80;;
19113;SDS011;9689;51.052;13.772;2023-05-10T16:39:22;4.03;;;2.90;;
19113;SDS011;9689;51.052;13.772;2023-05-10T16:44:24;4.82;;;2.70;;
19113;SDS011;9689;51.052;13.772;2023-05-10T16:49:25;5.35;;;2.55;;
19113;SDS011;9689;51.052;13.772;2023-05-10T16:54:26;2.78;;;2.05;;
19113;SDS011;9689;51.052;13.772;2023-05-10T16:59:29;3.95;;;2.75;;
19113;SDS011;9689;51.052;13.772;2023-05-10T17:04:29;4.03;;;2.58;;
19113;SDS011;9689;51.052;13.772;2023-05-10T17:09:30;4.95;;;2.50;;
19113;SDS011;9689;51.052;13.772;2023-05-10T17:14:32;8.93;;;3.00;;
19113;SDS011;9689;51.052;13.772;2023-05-10T17:19:33;3.95;;;2.58;;
19113;SDS011;9689;51.052;13.772;2023-05-10T17:24:34;3.97;;;2.88;;
19113;SDS011;9689;51.052;13.772;2023-05-10T17:29:36;4.32;;;2.40;;
19113;SDS011;9689;51.052;13.772;2023-05-10T17:34:37;4.55;;;2.50;;
19113;SDS011;9689;51.052;13.772;2023-05-10T17:39:38;7.68;;;3.10;;
19113;SDS011;9689;51.052;13.772;2023-05-10T17:44:40;5.25;;;3.00;;
19113;SDS011;9689;51.052;13.772;2023-05-10T17:49:42;5.78;;;2.67;;
19113;SDS011;9689;51.052;13.772;2023-05-10T17:54:42;5.35;;;2.50;;
19113;SDS011;9689;51.052;13.772;2023-05-10T17:59:44;3.58;;;2.60;;
19113;SDS011;9689;51.052;13.772;2023-05-10T18:04:45;4.05;;;2.08;;
19113;SDS011;9689;51.052;13.772;2023-05-10T18:09:47;4.72;;;2.40;;
19113;SDS011;9689;51.052;13.772;2023-05-10T18:14:50;3.20;;;1.92;;
19113;SDS011;9689;51.052;13.772;2023-05-10T18:19:51;2.55;;;1.63;;
19113;SDS011;9689;51.052;13.772;2023-05-10T18:24:51;5.85;;;1.83;;
19113;SDS011;9689;51.052;13.772;2023-05-10T18:29:53;2.78;;;1.75;;
19113;SDS011;9689;51.052;13.772;2023-05-10T18:34:54;2.58;;;1.45;;
19113;SDS011;9689;51.052;13.772;2023-05-10T18:39:56;2.42;;;1.55;;
19113;SDS011;9689;51.052;13.772;2023-05-10T18:44:58;1.80;;;1.20;;
19113;SDS011;9689;51.052;13.772;2023-05-10T18:49:59;1.45;;;1.27;;
19113;SDS011;9689;51.052;13.772;2023-05-10T19:00:30;2.35;;;1.52;;
19113;SDS011;9689;51.052;13.772;2023-05-10T19:05:30;3.60;;;1.67;;
19113;SDS011;9689;51.052;13.772;2023-05-10T19:10:31;1.98;;;1.58;;
19113;SDS011;9689;51.052;13.772;2023-05-10T19:15:33;3.78;;;2.00;;
19113;SDS011;9689;51.052;13.772;2023-05-10T19:20:34;2.85;;;2.10;;
19113;SDS011;9689;51.052;13.772;2023-05-10T19:25:38;3.40;;;2.17;;
19113;SDS011;9689;51.052;13.772;2023-05-10T19:30:41;4.40;;;1.83;;
19113;SDS011;9689;51.052;13.772;2023-05-10T19:35:42;4.65;;;2.35;;
19113;SDS011;9689;51.052;13.772;2023-05-10T19:40:43;5.40;;;1.70;;
19113;SDS011;9689;51.052;13.772;2023-05-10T19:45:46;2.90;;;1.83;;
19113;SDS011;9689;51.052;13.772;2023-05-10T19:50:47;6.30;;;1.98;;
19113;SDS011;9689;51.052;13.772;2023-05-10T19:55:47;5.63;;;2.10;;
19113;SDS011;9689;51.052;13.772;2023-05-10T20:00:49;3.00;;;2.08;;
19113;SDS011;9689;51.052;13.772;2023-05-10T20:05:50;2.55;;;1.92;;
19113;SDS011;9689;51.052;13.772;2023-05-10T20:10:51;9.80;;;2.88;;
19113;SDS011;9689;51.052;13.772;2023-05-10T20:15:55;7.18;;;3.25;;
19113;SDS011;9689;51.052;13.772;2023-05-10T20:20:56;5.35;;;2.70;;
19113;SDS011;9689;51.052;13.772;2023-05-10T20:25:59;6.10;;;2.63;;
19113;SDS011;9689;51.052;13.772;2023-05-10T20:31:01;6.65;;;3.17;;
19113;SDS011;9689;51.052;13.772;2023-05-10T20:36:02;6.78;;;3.00;;
19113;SDS011;9689;51.052;13.772;2023-05-10T20:41:03;5.57;;;2.85;;
19113;SDS011;9689;51.052;13.772;2023-05-10T20:46:05;6.00;;;3.17;;
19113;SDS011;9689;51.052;13.772;2023-05-10T20:51:06;4.13;;;2.40;;
19113;SDS011;9689;51.052;13.772;2023-05-10T20:56:06;4.47;;;2.70;;
19113;SDS011;9689;51.052;13.772;2023-05-10T21:01:08;6.47;;;2.95;;
19113;SDS011;9689;51.052;13.772;2023-05-10T21:06:10;5.13;;;3.15;;
19113;SDS011;9689;51.052;13.772;2023-05-10T21:11:10;3.95;;;2.80;;
19113;SDS011;9689;51.052;13.772;2023-05-10T21:16:12;3.65;;;2.78;;
19113;SDS011;9689;51.052;13.772;2023-05-10T21:21:13;5.93;;;3.05;;
19113;SDS011;9689;51.052;13.772;2023-05-10T21:26:14;6.53;;;3.00;;
19113;SDS011;9689;51.052;13.772;2023-05-10T21:31:16;5.85;;;3.15;;
19113;SDS011;9689;51.052;13.772;2023-05-10T21:36:17;6.70;;;3.38;;
19113;SDS011;9689;51.052;13.772;2023-05-10T21:41:18;6.03;;;3.63;;
19113;SDS011;9689;51.052;13.772;2023-05-10T21:46:21;4.88;;;3.10;;
19113;SDS011;9689;51.052;13.772;2023-05-10T21:51:22;6.85;;;3.72;;
19113;SDS011;9689;51.052;13.772;2023-05-10T21:56:22;5.35;;;3.55;;
19113;SDS011;9689;51.052;13.772;2023-05-10T22:01:24;5.65;;;3.30;;
19113;SDS011;9689;51.052;13.772;2023-05-10T22:06:25;4.65;;;3.08;;
19113;SDS011;9689;51.052;13.772;2023-05-10T22:11:26;4.63;;;3.42;;
19113;SDS011;9689;51.052;13.772;2023-05-10T22:16:28;4.80;;;3.60;;
19113;SDS011;9689;51.052;13.772;2023-05-10T22:21:29;5.80;;;3.85;;
19113;SDS011;9689;51.052;13.772;2023-05-10T22:26:30;5.47;;;3.97;;
19113;SDS011;9689;51.052;13.772;2023-05-10T22:31:32;5.80;;;4.05;;
19113;SDS011;9689;51.052;13.772;2023-05-10T22:36:33;7.38;;;4.25;;
19113;SDS011;9689;51.052;13.772;2023-05-10T22:41:33;7.00;;;4.22;;
19113;SDS011;9689;51.052;13.772;2023-05-10T22:46:35;6.25;;;3.97;;
19113;SDS011;9689;51.052;13.772;2023-05-10T22:51:36;8.30;;;4.32;;
19113;SDS011;9689;51.052;13.772;2023-05-10T22:56:37;10.32;;;4.25;;
19113;SDS011;9689;51.052;13.772;2023-05-10T23:01:39;9.05;;;3.88;;
19113;SDS011;9689;51.052;13.772;2023-05-10T23:06:40;9.00;;;4.00;;
19113;SDS011;9689;51.052;13.772;2023-05-10T23:11:40;9.40;;;4.00;;
19113;SDS011;9689;51.052;13.772;2023-05-10T23:16:42;7.15;;;4.65;;
19113;SDS011;9689;51.052;13.772;2023-05-10T23:21:43;9.82;;;4.40;;
19113;SDS011;9689;51.052;13.772;2023-05-10T23:26:44;7.85;;;4.60;;
19113;SDS011;9689;51.052;13.772;2023-05-10T23:31:48;7.28;;;4.53;;
19113;SDS011;9689;51.052;13.772;2023-05-10T23:36:49;10.05;;;5.00;;
19113;SDS011;9689;51.052;13.772;2023-05-10T23:41:50;6.97;;;4.70;;
19113;SDS011;9689;51.052;13.772;2023-05-10T23:46:52;9.45;;;5.40;;
19113;SDS011;9689;51.052;13.772;2023-05-10T23:51:52;7.50;;;5.13;;
19113;SDS011;9689;51.052;13.772;2023-05-10T23:56:53;9.88;;;6.03;;
